Time;durP1;ratioP1;P1;durP2;ratioP2;P2;SDS_P1;SDS_P2;PMS_P1;PMS_P2;Temp;Humidity;BMP_temperature;BMP_pressure;BME280_temperature;BME280_humidity;BME280_pressure;Samples;Min_cycle;Max_cycle;Signal;HPM_P1;HPM_P2
2021/09/09 00:00:58;;;;;;;7.30;6.70;;;19.90;33.00;;;;;;10319271;28;20235;-80
2021/09/09 00:06:02;;;;;;;7.50;6.90;;;19.80;32.30;;;;;;10322439;28;20306;-78
2021/09/09 00:11:07;;;;;;;8.70;7.90;;;19.80;32.30;;;;;;10330404;28;20234;-80
2021/09/09 00:16:11;;;;;;;7.73;7.13;;;19.70;33.50;;;;;;10332615;28;20229;-81
2021/09/09 00:21:14;;;;;;;8.67;7.90;;;19.50;32.20;;;;;;10327964;28;20233;-74
2021/09/09 00:26:19;;;;;;;9.40;8.60;;;19.30;32.40;;;;;;10330275;28;20228;-73
2021/09/09 00:31:22;;;;;;;9.00;8.10;;;19.20;33.20;;;;;;10322176;28;20245;-74
2021/09/09 00:36:26;;;;;;;8.63;7.83;;;19.00;32.90;;;;;;10328022;28;20720;-74
2021/09/09 00:41:31;;;;;;;7.90;7.20;;;18.80;33.40;;;;;;10325680;28;20611;-74
2021/09/09 00:46:35;;;;;;;9.23;8.33;;;18.70;33.80;;;;;;10331545;28;20222;-73
2021/09/09 00:51:38;;;;;;;7.37;6.70;;;18.60;33.70;;;;;;10324512;28;20227;-74
2021/09/09 00:56:50;;;;;;;7.23;6.63;;;18.70;33.60;;;;;;10323996;28;20223;-74
2021/09/09 01:01:54;;;;;;;8.87;7.97;;;18.60;34.80;;;;;;10325125;28;20230;-74
2021/09/09 01:07:00;;;;;;;7.97;7.27;;;18.70;33.90;;;;;;10323606;28;20701;-73
2021/09/09 01:12:06;;;;;;;7.77;6.97;;;18.60;33.90;;;;;;10306502;28;20239;-74
2021/09/09 01:17:10;;;;;;;8.53;7.73;;;18.60;34.40;;;;;;10320216;28;20310;-74
2021/09/09 01:22:14;;;;;;;7.83;7.13;;;18.60;34.00;;;;;;10319413;28;20321;-74
2021/09/09 01:27:22;;;;;;;7.70;7.10;;;18.60;33.90;;;;;;10323787;28;20567;-74
2021/09/09 01:32:25;;;;;;;8.13;7.33;;;18.60;34.40;;;;;;10317361;28;20230;-74
2021/09/09 01:37:29;;;;;;;7.67;6.97;;;18.60;34.10;;;;;;10323398;28;20314;-74
2021/09/09 01:42:54;;;;;;;8.67;7.93;;;18.60;34.10;;;;;;10325010;28;20223;-74
2021/09/09 01:47:57;;;;;;;8.20;7.50;;;18.50;34.60;;;;;;10323489;28;20223;-74
2021/09/09 01:53:00;;;;;;;8.03;7.40;;;18.50;34.10;;;;;;10329613;28;20595;-74
2021/09/09 01:58:05;;;;;;;10.13;8.90;;;18.50;34.20;;;;;;10331252;28;20231;-74
2021/09/09 02:03:08;;;;;;;8.87;8.07;;;18.30;34.60;;;;;;10330548;28;20226;-75
2021/09/09 02:08:12;;;;;;;8.67;7.90;;;18.30;34.40;;;;;;10331279;28;20273;-75
2021/09/09 02:13:16;;;;;;;7.67;7.07;;;18.20;34.40;;;;;;10357219;28;20313;-74
2021/09/09 02:18:20;;;;;;;8.13;7.37;;;18.20;34.90;;;;;;10328041;28;20231;-75
2021/09/09 02:23:23;;;;;;;7.23;6.63;;;18.00;34.60;;;;;;10314728;28;20234;-75
2021/09/09 02:28:28;;;;;;;8.13;7.33;;;18.00;34.70;;;;;;10321803;28;20423;-75
2021/09/09 02:33:32;;;;;;;7.13;6.53;;;17.90;34.80;;;;;;10324039;28;20230;-74
2021/09/09 02:38:36;;;;;;;6.30;5.73;;;17.90;34.70;;;;;;10336744;28;20316;-74
2021/09/09 02:43:41;;;;;;;8.10;7.40;;;17.90;34.70;;;;;;10329660;28;20541;-75
2021/09/09 02:48:45;;;;;;;8.00;7.40;;;17.90;34.70;;;;;;10331046;28;20229;-74
2021/09/09 02:53:48;;;;;;;7.27;6.67;;;17.90;34.70;;;;;;10327907;28;20231;-74
2021/09/09 02:58:53;;;;;;;7.87;6.90;;;17.90;34.70;;;;;;10328285;28;20280;-75
2021/09/09 03:03:56;;;;;;;8.70;7.90;;;17.90;35.10;;;;;;10332001;28;20238;-75
2021/09/09 03:09:00;;;;;;;8.33;7.63;;;17.80;34.60;;;;;;10331408;28;20237;-76
2021/09/09 03:14:05;;;;;;;7.13;6.53;;;17.80;34.60;;;;;;10327023;28;20227;-76
2021/09/09 03:19:08;;;;;;;6.97;6.47;;;17.80;34.60;;;;;;10328282;28;20238;-76
2021/09/09 03:24:11;;;;;;;7.37;6.83;;;17.80;34.60;;;;;;10325392;28;20236;-76
2021/09/09 03:29:16;;;;;;;6.80;6.30;;;17.70;34.50;;;;;;10326733;28;20235;-77
2021/09/09 03:34:19;;;;;;;8.43;7.73;;;17.70;34.70;;;;;;10333020;28;20233;-77
2021/09/09 03:39:22;;;;;;;8.90;8.10;;;17.70;34.50;;;;;;10327873;28;20285;-77
2021/09/09 03:44:27;;;;;;;8.10;7.20;;;17.60;34.80;;;;;;10328594;28;20254;-77
2021/09/09 03:49:30;;;;;;;8.90;8.00;;;17.60;35.10;;;;;;10330743;28;20250;-76
2021/09/09 03:54:34;;;;;;;7.73;7.00;;;17.50;34.80;;;;;;10328718;28;20226;-75
2021/09/09 03:59:39;;;;;;;7.80;6.90;;;17.50;34.90;;;;;;10324360;28;20223;-75
2021/09/09 04:04:42;;;;;;;7.30;6.60;;;17.40;35.30;;;;;;10314553;28;20695;-75
2021/09/09 04:09:45;;;;;;;7.50;6.90;;;17.40;34.60;;;;;;10348563;28;20729;-75
2021/09/09 04:14:50;;;;;;;7.97;7.17;;;17.30;34.80;;;;;;10333014;28;20223;-74
2021/09/09 04:19:53;;;;;;;7.07;6.43;;;17.30;35.40;;;;;;10328516;28;20313;-83
2021/09/09 04:24:58;;;;;;;7.00;6.30;;;17.20;35.00;;;;;;10322059;28;20227;-83
2021/09/09 04:30:03;;;;;;;6.90;6.40;;;17.20;35.20;;;;;;10325455;28;20222;-83
2021/09/09 04:35:08;;;;;;;7.60;7.00;;;17.20;35.60;;;;;;10317459;28;20670;-84
2021/09/09 04:40:12;;;;;;;8.37;7.57;;;17.20;35.40;;;;;;10313479;28;20242;-76
2021/09/09 04:45:17;;;;;;;8.83;8.10;;;17.10;35.60;;;;;;10336800;28;20333;-77
2021/09/09 04:50:20;;;;;;;8.63;7.80;;;17.00;35.70;;;;;;10318189;28;20223;-76
2021/09/09 04:55:24;;;;;;;6.90;6.20;;;17.10;35.40;;;;;;10322877;28;20318;-76
2021/09/09 05:00:29;;;;;;;7.40;6.70;;;17.10;35.40;;;;;;10316809;28;20249;-83
2021/09/09 05:05:32;;;;;;;8.63;7.00;;;17.00;35.80;;;;;;10320991;28;20230;-85
2021/09/09 05:10:35;;;;;;;7.23;6.63;;;17.00;36.40;;;;;;10321206;28;20616;-77
2021/09/09 05:15:40;;;;;;;6.87;6.07;;;16.90;35.50;;;;;;10333015;28;20222;-75
2021/09/09 05:20:43;;;;;;;6.00;5.50;;;16.90;36.00;;;;;;10322541;28;20239;-73
2021/09/09 05:25:47;;;;;;;8.17;7.40;;;16.90;35.80;;;;;;10326503;28;20701;-74
2021/09/09 05:30:52;;;;;;;7.97;7.27;;;16.90;36.40;;;;;;10325057;28;20233;-74
2021/09/09 05:35:55;;;;;;;8.27;7.60;;;16.90;36.90;;;;;;10321243;28;20242;-74
2021/09/09 05:40:58;;;;;;;7.67;7.07;;;16.90;36.70;;;;;;10317639;28;20332;-73
2021/09/09 05:46:03;;;;;;;7.70;6.97;;;17.00;36.70;;;;;;10314065;28;20225;-74
2021/09/09 05:51:07;;;;;;;8.03;7.23;;;17.00;37.30;;;;;;10340570;28;20238;-74
2021/09/09 05:56:11;;;;;;;8.50;7.80;;;17.10;37.00;;;;;;10322934;28;20311;-80
2021/09/09 06:01:15;;;;;;;9.90;8.20;;;17.10;37.30;;;;;;10320851;28;20257;-76
2021/09/09 06:06:19;;;;;;;8.97;8.20;;;17.10;37.90;;;;;;10325424;28;20230;-77
2021/09/09 06:11:22;;;;;;;10.80;8.03;;;17.30;37.70;;;;;;10316370;28;20249;-76
2021/09/09 06:16:27;;;;;;;11.07;8.40;;;17.30;37.90;;;;;;10321355;28;20570;-76
2021/09/09 06:21:31;;;;;;;9.97;8.97;;;17.40;38.80;;;;;;10317167;28;20231;-77
2021/09/09 06:26:34;;;;;;;11.90;10.70;;;17.40;38.20;;;;;;10316802;28;20225;-75
2021/09/09 06:31:39;;;;;;;12.07;10.93;;;17.60;38.70;;;;;;10310666;28;20235;-76
2021/09/09 06:36:42;;;;;;;13.20;11.80;;;17.70;39.60;;;;;;10323557;28;20226;-76
2021/09/09 06:41:46;;;;;;;14.73;13.33;;;17.80;39.10;;;;;;10327687;28;20247;-75
2021/09/09 06:46:50;;;;;;;14.80;13.47;;;17.90;39.30;;;;;;10336952;28;20237;-77
2021/09/09 06:51:54;;;;;;;14.40;13.00;;;18.00;40.30;;;;;;10323434;28;20223;-79
2021/09/09 06:56:57;;;;;;;15.60;14.20;;;18.10;39.80;;;;;;10327960;28;20227;-76
2021/09/09 07:02:02;;;;;;;26.60;24.33;;;18.20;40.30;;;;;;10331895;28;20310;-79
2021/09/09 07:07:19;;;;;;;20.27;18.27;;;18.30;41.70;;;;;;10307029;28;20259;-76
2021/09/09 07:18:04;;;;;;;318.00;68.80;;;18.70;43.00;;;;;;10319169;28;20263;-76
2021/09/09 07:23:10;;;;;;;72.67;34.97;;;18.90;42.60;;;;;;10325345;28;20756;-77
2021/09/09 07:34:40;;;;;;;42.57;27.60;;;19.30;43.30;;;;;;10307180;28;20360;-75
2021/09/09 07:39:50;;;;;;;17.77;14.70;;;19.60;42.70;;;;;;10301780;28;20771;-75
2021/09/09 07:44:55;;;;;;;13.97;12.57;;;19.80;43.30;;;;;;10304425;28;20223;-75
2021/09/09 07:50:02;;;;;;;13.77;12.30;;;20.10;42.30;;;;;;10308710;28;20237;-75
2021/09/09 07:55:07;;;;;;;13.63;12.40;;;20.40;42.50;;;;;;10309594;28;20243;-76
2021/09/09 08:00:11;;;;;;;12.30;11.20;;;20.70;42.60;;;;;;10311108;28;20230;-74
2021/09/09 08:05:17;;;;;;;11.13;10.13;;;21.00;42.60;;;;;;10306759;28;20257;-74
2021/09/09 08:10:20;;;;;;;12.23;11.03;;;21.40;42.50;;;;;;10308716;28;20231;-74
2021/09/09 08:15:24;;;;;;;10.87;9.80;;;21.70;41.70;;;;;;10307885;28;20241;-74
2021/09/09 08:20:29;;;;;;;9.83;8.83;;;22.10;41.20;;;;;;10308705;28;20235;-74
2021/09/09 08:25:33;;;;;;;8.77;7.97;;;22.40;40.70;;;;;;10309420;28;20314;-74
2021/09/09 08:30:36;;;;;;;9.37;8.60;;;22.70;40.20;;;;;;10283026;28;20241;-74
2021/09/09 08:35:42;;;;;;;7.57;6.97;;;23.00;39.90;;;;;;10278033;28;20242;-74
2021/09/09 08:40:50;;;;;;;7.67;6.97;;;23.20;39.30;;;;;;10305525;28;20743;-74
2021/09/09 08:45:55;;;;;;;7.33;6.73;;;23.40;38.70;;;;;;10308804;28;20230;-74
2021/09/09 08:51:16;;;;;;;8.27;7.67;;;23.80;38.30;;;;;;10308813;28;20601;-74
2021/09/09 08:56:20;;;;;;;8.13;7.43;;;24.10;37.50;;;;;;10299389;28;20226;-74
2021/09/09 09:01:23;;;;;;;7.93;7.23;;;24.30;38.00;;;;;;10301662;28;20239;-74
2021/09/09 09:06:36;;;;;;;7.03;6.43;;;24.50;37.50;;;;;;10303353;28;20223;-74
2021/09/09 09:11:43;;;;;;;7.13;6.53;;;24.80;37.00;;;;;;10306909;28;20233;-74
2021/09/09 09:16:48;;;;;;;7.37;6.77;;;25.00;36.40;;;;;;10303388;28;20269;-74
2021/09/09 09:21:55;;;;;;;7.47;6.87;;;25.20;36.50;;;;;;10306465;28;20233;-73
2021/09/09 09:27:08;;;;;;;7.13;6.60;;;25.40;36.30;;;;;;10308866;28;20610;-73
2021/09/09 09:32:15;;;;;;;6.73;6.13;;;25.60;36.00;;;;;;10304540;28;20609;-74
2021/09/09 09:37:23;;;;;;;6.70;5.80;;;25.80;35.50;;;;;;10274698;28;20234;-73
2021/09/09 09:42:28;;;;;;;6.50;6.00;;;26.00;34.90;;;;;;10299882;28;20599;-73
2021/09/09 09:47:35;;;;;;;6.60;6.00;;;26.20;34.80;;;;;;10308579;28;20224;-73
2021/09/09 09:52:39;;;;;;;6.93;6.20;;;26.30;34.10;;;;;;10311684;28;20241;-78
2021/09/09 09:57:53;;;;;;;6.13;5.53;;;26.50;34.30;;;;;;10305857;28;20234;-76
2021/09/09 10:02:56;;;;;;;6.67;6.17;;;26.70;34.40;;;;;;10314976;28;20227;-78
2021/09/09 10:08:01;;;;;;;6.77;6.27;;;26.90;33.80;;;;;;10310080;28;20730;-73
2021/09/09 10:13:05;;;;;;;6.30;5.77;;;27.00;33.30;;;;;;10311325;28;20241;-73
2021/09/09 10:18:10;;;;;;;6.90;6.40;;;27.20;34.00;;;;;;10313253;28;20237;-73
2021/09/09 10:23:17;;;;;;;6.50;6.00;;;27.30;33.90;;;;;;10310404;28;20231;-72
2021/09/09 10:28:41;;;;;;;7.50;6.80;;;27.50;32.50;;;;;;10307313;28;20223;-72
2021/09/09 10:33:46;;;;;;;7.10;6.50;;;27.70;32.70;;;;;;10306067;28;20234;-72
2021/09/09 10:38:51;;;;;;;6.83;6.23;;;27.90;32.80;;;;;;10311326;28;20223;-72
2021/09/09 10:43:59;;;;;;;6.67;6.10;;;28.00;31.80;;;;;;10313636;28;20246;-72
2021/09/09 10:49:08;;;;;;;6.53;5.80;;;28.10;30.70;;;;;;10315336;28;20231;-73
2021/09/09 10:54:16;;;;;;;6.73;6.13;;;28.30;31.50;;;;;;10312657;28;20236;-73
2021/09/09 10:59:21;;;;;;;6.40;5.90;;;28.40;30.50;;;;;;10311738;28;20885;-73
2021/09/09 11:04:29;;;;;;;6.87;6.37;;;28.60;31.40;;;;;;10309666;28;20652;-73
2021/09/09 11:09:33;;;;;;;6.70;6.10;;;28.70;30.70;;;;;;10310487;28;20802;-72
2021/09/09 11:14:37;;;;;;;6.43;5.93;;;28.70;30.60;;;;;;10309721;28;20231;-73
2021/09/09 11:19:40;;;;;;;6.97;6.33;;;28.80;30.70;;;;;;10309610;28;20739;-73
2021/09/09 11:24:45;;;;;;;7.20;6.10;;;28.80;30.80;;;;;;10303516;28;20234;-72
2021/09/09 11:29:56;;;;;;;6.23;5.77;;;28.80;29.90;;;;;;10310994;28;20229;-72
2021/09/09 11:35:07;;;;;;;6.47;6.03;;;28.90;30.10;;;;;;10301277;28;20238;-72
2021/09/09 11:40:14;;;;;;;5.97;5.47;;;29.00;29.50;;;;;;10309319;28;20254;-72
2021/09/09 11:45:21;;;;;;;8.37;5.43;;;29.10;29.10;;;;;;10308220;28;20247;-72
2021/09/09 11:50:24;;;;;;;6.37;5.87;;;29.20;27.70;;;;;;10303135;28;20227;-72
2021/09/09 11:55:29;;;;;;;6.50;6.00;;;29.20;29.40;;;;;;10307126;28;20222;-72
2021/09/09 12:00:32;;;;;;;6.23;5.73;;;29.20;28.90;;;;;;10300230;28;20230;-72
2021/09/09 12:05:36;;;;;;;5.90;5.50;;;29.30;29.10;;;;;;10303210;28;20277;-72
2021/09/09 12:10:41;;;;;;;7.03;6.03;;;29.30;28.70;;;;;;10305463;28;20251;-72
2021/09/09 12:15:44;;;;;;;6.43;5.93;;;29.40;28.40;;;;;;10310655;28;20227;-72
2021/09/09 12:20:49;;;;;;;5.83;5.33;;;29.40;28.90;;;;;;10318981;23;20727;-72
2021/09/09 12:25:54;;;;;;;5.83;5.43;;;29.40;28.70;;;;;;10341455;28;20236;-73
2021/09/09 12:31:00;;;;;;;7.57;5.77;;;29.50;28.00;;;;;;10330035;28;20235;-73
2021/09/09 12:36:07;;;;;;;6.40;5.90;;;29.50;27.80;;;;;;10308756;28;20242;-80
2021/09/09 12:41:27;;;;;;;6.40;5.90;;;29.50;27.80;;;;;;10314529;28;20598;-79
2021/09/09 12:46:35;;;;;;;6.33;5.83;;;29.50;28.10;;;;;;10312062;28;20235;-80
2021/09/09 12:51:39;;;;;;;6.60;5.73;;;29.60;27.80;;;;;;10314854;28;20342;-80
2021/09/09 12:56:48;;;;;;;6.13;5.63;;;29.60;27.60;;;;;;10311542;28;20237;-81
2021/09/09 13:01:51;;;;;;;6.43;5.93;;;29.70;27.50;;;;;;10312080;28;20249;-81
2021/09/09 13:06:55;;;;;;;6.20;5.70;;;29.70;27.50;;;;;;10321668;28;21053;-80
2021/09/09 13:12:00;;;;;;;6.30;5.80;;;29.70;27.70;;;;;;10312624;28;20649;-81
2021/09/09 13:17:03;;;;;;;6.10;5.60;;;29.70;26.80;;;;;;10309626;28;20925;-78
2021/09/09 13:22:06;;;;;;;6.43;5.73;;;29.70;27.60;;;;;;10308461;28;20232;-74
2021/09/09 13:27:11;;;;;;;6.20;5.67;;;29.60;27.40;;;;;;10306932;28;20233;-80
2021/09/09 13:32:15;;;;;;;5.93;5.50;;;29.60;27.50;;;;;;10307168;28;20230;-79
2021/09/09 13:37:18;;;;;;;7.03;5.50;;;29.70;27.20;;;;;;10314396;28;20614;-79
2021/09/09 13:42:29;;;;;;;5.97;5.40;;;29.70;27.00;;;;;;10303437;28;20933;-79
2021/09/09 13:47:32;;;;;;;5.53;5.07;;;29.70;26.40;;;;;;10308613;28;20626;-78
2021/09/09 13:52:35;;;;;;;5.40;5.00;;;29.70;26.90;;;;;;10315385;28;20231;-82
2021/09/09 13:57:41;;;;;;;5.50;5.10;;;29.70;26.80;;;;;;10310538;28;20223;-78
2021/09/09 14:02:45;;;;;;;5.50;5.10;;;29.70;26.50;;;;;;10313853;28;20241;-80
2021/09/09 14:07:52;;;;;;;6.13;5.53;;;29.80;26.70;;;;;;10322208;28;20716;-80
2021/09/09 14:12:57;;;;;;;7.23;6.63;;;29.80;26.40;;;;;;10315545;28;20596;-79
2021/09/09 14:18:00;;;;;;;6.10;5.60;;;29.80;26.00;;;;;;10315192;28;20672;-73
2021/09/09 14:23:03;;;;;;;5.50;5.10;;;29.90;26.40;;;;;;10311076;28;20231;-74
2021/09/09 14:28:08;;;;;;;62.13;56.00;;;29.90;26.30;;;;;;10318220;28;20227;-80
2021/09/09 14:33:11;;;;;;;440.87;234.80;;;29.90;26.00;;;;;;10315261;28;20223;-73
2021/09/09 14:38:15;;;;;;;408.80;188.03;;;29.90;26.20;;;;;;10313709;28;20710;-80
2021/09/09 14:43:19;;;;;;;200.50;118.53;;;29.90;26.10;;;;;;10317587;28;20250;-80
2021/09/09 14:48:22;;;;;;;26.07;18.90;;;29.90;25.40;;;;;;10315519;28;20227;-80
2021/09/09 14:53:26;;;;;;;11.73;10.63;;;29.90;25.90;;;;;;10315849;28;20227;-73
2021/09/09 14:58:31;;;;;;;11.83;10.67;;;29.80;25.90;;;;;;10314787;28;20238;-73
2021/09/09 15:03:34;;;;;;;8.70;8.00;;;29.80;25.90;;;;;;10311298;28;20238;-79
2021/09/09 15:08:38;;;;;;;6.10;5.60;;;29.80;26.00;;;;;;10314372;28;20231;-77
2021/09/09 15:13:43;;;;;;;7.00;6.47;;;29.80;26.00;;;;;;10315624;28;20229;-79
2021/09/09 15:18:46;;;;;;;6.10;5.60;;;29.80;25.60;;;;;;10312132;28;20947;-79
2021/09/09 15:23:49;;;;;;;54.07;37.83;;;29.80;25.60;;;;;;10311649;28;20912;-79
2021/09/09 15:28:54;;;;;;;11.20;8.20;;;29.70;25.60;;;;;;10313038;28;20225;-80
2021/09/09 15:33:57;;;;;;;15.57;12.77;;;29.70;25.30;;;;;;10312557;28;20225;-79
2021/09/09 15:39:00;;;;;;;7.00;5.80;;;29.60;25.40;;;;;;10312806;28;20234;-81
2021/09/09 15:44:05;;;;;;;86.70;77.50;;;29.50;25.30;;;;;;10318496;28;20229;-79
2021/09/09 15:49:08;;;;;;;57.53;51.77;;;29.50;24.90;;;;;;10313810;28;20235;-80
2021/09/09 15:54:11;;;;;;;9.50;8.70;;;29.40;25.10;;;;;;10318657;28;20601;-75
2021/09/09 15:59:16;;;;;;;6.87;6.27;;;29.40;24.90;;;;;;10314508;28;20239;-80
2021/09/09 16:04:20;;;;;;;73.57;67.13;;;29.50;24.60;;;;;;10309198;28;20227;-73
2021/09/09 16:09:23;;;;;;;8.33;7.73;;;29.50;25.00;;;;;;10310043;28;20808;-77
2021/09/09 16:14:28;;;;;;;6.37;5.80;;;29.50;24.70;;;;;;10320486;28;20239;-80
2021/09/09 16:19:31;;;;;;;10.83;9.93;;;29.50;24.40;;;;;;10317209;28;20724;-80
2021/09/09 16:24:34;;;;;;;5.93;5.53;;;29.50;24.70;;;;;;10314582;28;20237;-80
2021/09/09 16:29:39;;;;;;;6.10;5.63;;;29.50;24.80;;;;;;10308870;28;20238;-73
2021/09/09 16:34:42;;;;;;;5.00;4.70;;;29.60;24.70;;;;;;10309785;28;20227;-73
2021/09/09 16:39:45;;;;;;;4.90;4.50;;;29.60;25.20;;;;;;10312979;28;20218;-73
2021/09/09 16:44:50;;;;;;;4.80;4.40;;;29.60;24.70;;;;;;10310483;28;20609;-72
2021/09/09 16:49:53;;;;;;;4.43;4.03;;;29.50;24.10;;;;;;10306909;28;20230;-74
2021/09/09 16:54:56;;;;;;;4.50;4.20;;;29.40;24.30;;;;;;10304530;28;20227;-74
2021/09/09 17:00:01;;;;;;;4.37;4.07;;;29.30;24.40;;;;;;10305720;28;20231;-73
2021/09/09 17:05:06;;;;;;;4.40;4.10;;;29.20;25.10;;;;;;10300097;28;20242;-81
2021/09/09 17:10:10;;;;;;;4.27;3.97;;;29.20;25.30;;;;;;10307258;28;20242;-73
2021/09/09 17:15:17;;;;;;;4.47;4.07;;;29.20;25.60;;;;;;10307110;28;20227;-80
2021/09/09 17:20:20;;;;;;;4.83;4.43;;;29.20;25.70;;;;;;10310200;28;20231;-80
2021/09/09 17:25:25;;;;;;;5.20;4.70;;;29.20;25.60;;;;;;10314416;28;20231;-80
2021/09/09 17:30:30;;;;;;;5.57;4.83;;;29.20;25.80;;;;;;10312992;28;20215;-80
2021/09/09 17:35:33;;;;;;;4.70;4.30;;;29.10;25.80;;;;;;10314761;28;20227;-79
2021/09/09 17:40:36;;;;;;;6.10;4.90;;;29.00;25.90;;;;;;10309624;28;20238;-80
2021/09/09 17:45:42;;;;;;;5.57;5.00;;;28.90;26.10;;;;;;10321221;28;20219;-78
2021/09/09 17:50:45;;;;;;;5.30;4.80;;;28.80;26.10;;;;;;10310482;28;20238;-76
2021/09/09 17:55:49;;;;;;;5.73;5.17;;;28.60;26.00;;;;;;10311869;28;20736;-80
2021/09/09 18:00:56;;;;;;;5.60;5.20;;;28.40;26.10;;;;;;10314843;28;20238;-79
2021/09/09 18:05:59;;;;;;;5.67;5.27;;;28.20;26.50;;;;;;10316868;28;20233;-79
2021/09/09 18:11:04;;;;;;;5.17;4.77;;;28.10;26.60;;;;;;10317794;28;20960;-79
2021/09/09 18:16:10;;;;;;;5.80;5.33;;;28.10;26.90;;;;;;10304595;28;20227;-81
2021/09/09 18:21:13;;;;;;;5.57;5.07;;;28.00;27.10;;;;;;10302211;28;20227;-82
2021/09/09 18:26:17;;;;;;;5.43;4.83;;;27.90;26.90;;;;;;10316720;28;20233;-82
2021/09/09 18:31:24;;;;;;;5.53;5.03;;;27.80;27.00;;;;;;10299978;28;20643;-82
2021/09/09 18:36:29;;;;;;;5.77;5.30;;;27.70;27.30;;;;;;10310201;28;20231;-83
2021/09/09 18:41:33;;;;;;;7.10;5.30;;;27.50;27.20;;;;;;10320915;28;20222;-83
2021/09/09 18:46:38;;;;;;;8.70;5.47;;;27.40;27.40;;;;;;10312985;28;20227;-83
2021/09/09 18:51:41;;;;;;;6.47;5.97;;;27.20;27.60;;;;;;10290223;28;20225;-83
2021/09/09 18:56:45;;;;;;;7.53;6.53;;;27.00;27.60;;;;;;10321060;28;20732;-82
2021/09/09 19:01:50;;;;;;;6.53;6.00;;;26.90;27.70;;;;;;10316297;28;20233;-83
2021/09/09 19:06:54;;;;;;;8.10;7.40;;;26.80;28.30;;;;;;10317214;28;20230;-83
2021/09/09 19:11:58;;;;;;;6.73;6.17;;;26.60;28.20;;;;;;10322912;28;20227;-82
2021/09/09 19:17:03;;;;;;;6.97;6.37;;;26.40;28.20;;;;;;10312371;28;20318;-82
2021/09/09 19:22:07;;;;;;;7.00;6.47;;;26.10;28.80;;;;;;10317170;28;20235;-82
2021/09/09 19:27:12;;;;;;;7.60;6.90;;;25.90;28.90;;;;;;10315066;28;20607;-82
2021/09/09 19:32:18;;;;;;;7.47;6.97;;;25.70;29.10;;;;;;10310671;28;20760;-82
2021/09/09 19:42:48;;;;;;;8.20;7.60;;;25.30;29.70;;;;;;10305295;28;20900;-82
2021/09/09 19:47:54;;;;;;;9.30;7.60;;;25.10;29.50;;;;;;10316682;28;20575;-81
2021/09/09 19:53:05;;;;;;;8.20;7.40;;;24.90;30.20;;;;;;10303906;28;20231;-82
2021/09/09 19:58:08;;;;;;;7.27;6.77;;;24.70;30.10;;;;;;10317849;28;20242;-82
2021/09/09 20:03:13;;;;;;;8.13;7.43;;;24.60;30.00;;;;;;10295811;28;20227;-82
2021/09/09 20:08:16;;;;;;;8.17;7.50;;;24.50;30.60;;;;;;10312588;28;20227;-82
2021/09/09 20:13:20;;;;;;;8.60;7.90;;;24.50;31.20;;;;;;10310820;28;20234;-82
2021/09/09 20:18:25;;;;;;;9.43;8.47;;;24.40;30.60;;;;;;10316604;28;20779;-82
2021/09/09 20:23:29;;;;;;;8.73;8.03;;;24.40;31.40;;;;;;10309581;28;20239;-82
2021/09/09 20:28:32;;;;;;;9.07;8.37;;;24.30;30.70;;;;;;10313195;28;20334;-82
2021/09/09 20:33:37;;;;;;;9.13;8.27;;;24.30;31.00;;;;;;10288045;28;20250;-82
2021/09/09 20:44:43;;;;;;;8.40;7.67;;;24.10;31.30;;;;;;10313331;28;20870;-82
2021/09/09 20:49:48;;;;;;;9.97;9.00;;;24.10;31.00;;;;;;10314433;28;20227;-82
2021/09/09 20:54:54;;;;;;;10.57;9.27;;;24.10;31.70;;;;;;10311440;28;20238;-82
2021/09/09 20:59:58;;;;;;;11.23;10.00;;;24.00;31.60;;;;;;10302677;28;20239;-82
2021/09/09 21:05:16;;;;;;;10.37;9.47;;;23.90;31.60;;;;;;10312223;28;20330;-77
2021/09/09 21:10:40;;;;;;;10.00;9.07;;;23.80;32.50;;;;;;10325500;28;20708;-82
2021/09/09 21:15:43;;;;;;;11.07;9.60;;;23.60;31.70;;;;;;10315208;28;20229;-82
2021/09/09 21:20:48;;;;;;;10.20;9.30;;;23.60;31.90;;;;;;10309469;28;20314;-82
2021/09/09 21:26:10;;;;;;;10.47;9.47;;;23.50;32.50;;;;;;10310217;28;20309;-82
2021/09/09 21:31:28;;;;;;;8.67;7.97;;;23.50;32.20;;;;;;10287732;28;20234;-82
2021/09/09 21:36:41;;;;;;;9.03;8.30;;;23.40;32.30;;;;;;10317150;28;20223;-83
2021/09/09 21:41:50;;;;;;;10.67;9.73;;;23.30;33.00;;;;;;10318069;28;20253;-82
2021/09/09 21:46:54;;;;;;;11.00;9.97;;;23.30;32.90;;;;;;10313547;28;20311;-82
2021/09/09 21:52:00;;;;;;;10.77;9.83;;;23.20;32.70;;;;;;10308066;28;20245;-82
2021/09/09 21:57:04;;;;;;;10.23;9.43;;;23.20;33.40;;;;;;10324467;28;20747;-82
2021/09/09 22:02:07;;;;;;;12.17;9.90;;;23.10;33.10;;;;;;10315005;28;20230;-81
2021/09/09 22:07:13;;;;;;;10.17;9.37;;;22.90;33.20;;;;;;10322014;28;20233;-82
2021/09/09 22:12:17;;;;;;;11.13;9.77;;;22.80;34.20;;;;;;10320721;28;20234;-82
2021/09/09 22:17:21;;;;;;;9.70;8.97;;;22.70;33.70;;;;;;10327507;28;20251;-82
2021/09/09 22:22:27;;;;;;;10.63;9.73;;;22.60;33.80;;;;;;10330330;28;20702;-82
2021/09/09 22:27:35;;;;;;;8.57;7.93;;;22.50;34.50;;;;;;10316781;28;20223;-82
2021/09/09 22:32:43;;;;;;;9.33;8.43;;;22.30;33.90;;;;;;10322681;28;20605;-82
2021/09/09 22:37:47;;;;;;;8.50;7.80;;;22.20;35.20;;;;;;10325166;28;20223;-82
2021/09/09 22:42:58;;;;;;;10.63;9.63;;;22.20;34.70;;;;;;10322127;28;20222;-82
2021/09/09 22:48:02;;;;;;;10.10;9.30;;;22.20;34.50;;;;;;10317324;28;20644;-77
2021/09/09 22:53:06;;;;;;;10.87;9.97;;;22.20;34.40;;;;;;10308521;28;20230;-82
2021/09/09 22:58:10;;;;;;;10.70;9.80;;;22.10;35.20;;;;;;10330193;28;20638;-82
2021/09/09 23:03:13;;;;;;;9.90;9.10;;;21.90;34.60;;;;;;10329048;28;20321;-82
2021/09/09 23:08:18;;;;;;;10.23;9.43;;;21.80;34.80;;;;;;10323875;28;20266;-82
2021/09/09 23:13:22;;;;;;;10.10;9.30;;;21.80;35.80;;;;;;10321301;28;20518;-81
2021/09/09 23:18:26;;;;;;;10.00;9.20;;;21.70;35.20;;;;;;10322862;28;20822;-82
2021/09/09 23:23:31;;;;;;;10.53;9.53;;;21.60;35.20;;;;;;10318421;28;20231;-82
2021/09/09 23:28:35;;;;;;;8.53;7.83;;;21.50;35.90;;;;;;10322184;28;20226;-81
2021/09/09 23:33:58;;;;;;;10.03;9.23;;;21.50;35.40;;;;;;10321228;28;20732;-82
2021/09/09 23:39:03;;;;;;;9.57;8.77;;;21.40;35.70;;;;;;10322607;28;20327;-82
2021/09/09 23:44:07;;;;;;;10.63;9.57;;;21.40;36.10;;;;;;10321617;28;20230;-82
2021/09/09 23:49:11;;;;;;;9.03;8.33;;;21.40;35.70;;;;;;10316905;28;20318;-82
2021/09/09 23:54:17;;;;;;;9.93;9.03;;;21.30;35.70;;;;;;10321234;28;20227;-82
2021/09/09 23:59:20;;;;;;;8.13;7.53;;;21.20;36.50;;;;;;10320203;28;20249;-81
